sensor_id;sensor_type;location;lat;lon;timestamp;P1;durP1;ratioP1;P2;durP2;ratioP2
8466;SDS011;4270;48.148;11.648;2022-10-22T00:01:51;4.17;;;2.33;;
8466;SDS011;4270;48.148;11.648;2022-10-22T00:04:16;3.60;;;2.10;;
8466;SDS011;4270;48.148;11.648;2022-10-22T00:06:41;2.80;;;2.27;;
8466;SDS011;4270;48.148;11.648;2022-10-22T00:09:09;4.90;;;2.40;;
8466;SDS011;4270;48.148;11.648;2022-10-22T00:11:34;3.07;;;2.43;;
8466;SDS011;4270;48.148;11.648;2022-10-22T00:13:59;2.27;;;1.83;;
8466;SDS011;4270;48.148;11.648;2022-10-22T00:16:24;3.80;;;2.20;;
8466;SDS011;4270;48.148;11.648;2022-10-22T00:18:50;3.60;;;2.00;;
8466;SDS011;4270;48.148;11.648;2022-10-22T00:21:15;2.57;;;1.73;;
8466;SDS011;4270;48.148;11.648;2022-10-22T00:23:41;3.00;;;1.90;;
8466;SDS011;4270;48.148;11.648;2022-10-22T00:26:06;3.13;;;1.70;;
8466;SDS011;4270;48.148;11.648;2022-10-22T00:28:32;2.17;;;1.43;;
8466;SDS011;4270;48.148;11.648;2022-10-22T00:30:57;5.33;;;1.87;;
8466;SDS011;4270;48.148;11.648;2022-10-22T00:33:23;2.90;;;1.53;;
8466;SDS011;4270;48.148;11.648;2022-10-22T00:35:48;4.17;;;1.60;;
8466;SDS011;4270;48.148;11.648;2022-10-22T00:38:14;4.10;;;1.70;;
8466;SDS011;4270;48.148;11.648;2022-10-22T00:40:39;2.43;;;1.97;;
8466;SDS011;4270;48.148;11.648;2022-10-22T00:43:04;3.90;;;1.90;;
8466;SDS011;4270;48.148;11.648;2022-10-22T00:45:29;2.23;;;1.90;;
8466;SDS011;4270;48.148;11.648;2022-10-22T00:52:54;2.43;;;1.50;;
8466;SDS011;4270;48.148;11.648;2022-10-22T00:55:20;3.90;;;1.83;;
8466;SDS011;4270;48.148;11.648;2022-10-22T00:57:46;1.87;;;1.50;;
8466;SDS011;4270;48.148;11.648;2022-10-22T01:00:11;2.60;;;1.57;;
8466;SDS011;4270;48.148;11.648;2022-10-22T01:02:37;3.70;;;1.20;;
8466;SDS011;4270;48.148;11.648;2022-10-22T01:05:02;1.73;;;1.20;;
8466;SDS011;4270;48.148;11.648;2022-10-22T01:07:28;1.37;;;1.13;;
8466;SDS011;4270;48.148;11.648;2022-10-22T01:18:11;2.90;;;1.20;;
8466;SDS011;4270;48.148;11.648;2022-10-22T01:31:07;1.30;;;1.00;;
8466;SDS011;4270;48.148;11.648;2022-10-22T01:33:33;5.43;;;2.07;;
8466;SDS011;4270;48.148;11.648;2022-10-22T01:36:00;3.40;;;1.23;;
8466;SDS011;4270;48.148;11.648;2022-10-22T01:38:26;5.17;;;1.40;;
8466;SDS011;4270;48.148;11.648;2022-10-22T01:40:51;3.40;;;1.30;;
8466;SDS011;4270;48.148;11.648;2022-10-22T01:43:17;1.80;;;1.17;;
8466;SDS011;4270;48.148;11.648;2022-10-22T01:45:43;2.93;;;1.20;;
8466;SDS011;4270;48.148;11.648;2022-10-22T01:50:52;3.13;;;1.50;;
8466;SDS011;4270;48.148;11.648;2022-10-22T01:53:35;3.20;;;1.17;;
8466;SDS011;4270;48.148;11.648;2022-10-22T01:58:38;1.90;;;1.07;;
8466;SDS011;4270;48.148;11.648;2022-10-22T02:03:33;2.37;;;1.10;;
8466;SDS011;4270;48.148;11.648;2022-10-22T02:06:00;3.00;;;1.10;;
8466;SDS011;4270;48.148;11.648;2022-10-22T02:08:30;1.60;;;1.40;;
8466;SDS011;4270;48.148;11.648;2022-10-22T02:10:56;3.20;;;1.40;;
8466;SDS011;4270;48.148;11.648;2022-10-22T02:13:26;4.90;;;1.60;;
8466;SDS011;4270;48.148;11.648;2022-10-22T02:15:52;3.33;;;1.27;;
8466;SDS011;4270;48.148;11.648;2022-10-22T02:18:19;2.50;;;1.60;;
8466;SDS011;4270;48.148;11.648;2022-10-22T02:20:46;2.07;;;1.27;;
8466;SDS011;4270;48.148;11.648;2022-10-22T02:23:11;2.57;;;1.10;;
8466;SDS011;4270;48.148;11.648;2022-10-22T02:25:38;2.10;;;1.10;;
8466;SDS011;4270;48.148;11.648;2022-10-22T02:28:23;2.13;;;1.33;;
8466;SDS011;4270;48.148;11.648;2022-10-22T02:30:54;3.30;;;1.63;;
8466;SDS011;4270;48.148;11.648;2022-10-22T02:33:21;1.53;;;1.33;;
8466;SDS011;4270;48.148;11.648;2022-10-22T02:35:50;2.37;;;1.40;;
8466;SDS011;4270;48.148;11.648;2022-10-22T02:38:16;4.10;;;1.50;;
8466;SDS011;4270;48.148;11.648;2022-10-22T02:40:42;3.73;;;1.20;;
8466;SDS011;4270;48.148;11.648;2022-10-22T02:43:07;1.13;;;1.03;;
8466;SDS011;4270;48.148;11.648;2022-10-22T02:45:32;3.40;;;1.50;;
8466;SDS011;4270;48.148;11.648;2022-10-22T02:47:58;2.53;;;1.43;;
8466;SDS011;4270;48.148;11.648;2022-10-22T02:50:23;2.20;;;1.17;;
8466;SDS011;4270;48.148;11.648;2022-10-22T02:52:48;1.20;;;1.10;;
8466;SDS011;4270;48.148;11.648;2022-10-22T02:55:14;3.20;;;1.37;;
8466;SDS011;4270;48.148;11.648;2022-10-22T02:57:39;3.60;;;1.40;;
8466;SDS011;4270;48.148;11.648;2022-10-22T03:00:05;4.90;;;1.40;;
8466;SDS011;4270;48.148;11.648;2022-10-22T03:02:30;3.10;;;1.30;;
8466;SDS011;4270;48.148;11.648;2022-10-22T03:04:55;3.07;;;1.33;;
8466;SDS011;4270;48.148;11.648;2022-10-22T03:07:21;1.47;;;0.93;;
8466;SDS011;4270;48.148;11.648;2022-10-22T03:09:46;1.37;;;1.07;;
8466;SDS011;4270;48.148;11.648;2022-10-22T03:12:11;2.00;;;1.30;;
8466;SDS011;4270;48.148;11.648;2022-10-22T03:14:36;6.50;;;1.60;;
8466;SDS011;4270;48.148;11.648;2022-10-22T03:17:02;1.57;;;1.17;;
8466;SDS011;4270;48.148;11.648;2022-10-22T03:19:27;2.40;;;1.23;;
8466;SDS011;4270;48.148;11.648;2022-10-22T03:21:52;2.43;;;1.40;;
8466;SDS011;4270;48.148;11.648;2022-10-22T03:24:33;3.00;;;1.50;;
8466;SDS011;4270;48.148;11.648;2022-10-22T03:26:59;1.90;;;1.40;;
8466;SDS011;4270;48.148;11.648;2022-10-22T03:29:25;1.67;;;0.87;;
8466;SDS011;4270;48.148;11.648;2022-10-22T03:31:51;2.20;;;1.30;;
8466;SDS011;4270;48.148;11.648;2022-10-22T03:34:16;3.10;;;1.43;;
8466;SDS011;4270;48.148;11.648;2022-10-22T03:36:41;3.40;;;1.30;;
8466;SDS011;4270;48.148;11.648;2022-10-22T03:39:06;1.60;;;1.10;;
8466;SDS011;4270;48.148;11.648;2022-10-22T03:41:32;1.40;;;1.13;;
8466;SDS011;4270;48.148;11.648;2022-10-22T03:43:58;2.20;;;1.10;;
8466;SDS011;4270;48.148;11.648;2022-10-22T03:46:24;1.20;;;1.10;;
8466;SDS011;4270;48.148;11.648;2022-10-22T03:48:49;2.60;;;1.13;;
8466;SDS011;4270;48.148;11.648;2022-10-22T03:51:14;1.13;;;1.00;;
8466;SDS011;4270;48.148;11.648;2022-10-22T03:53:39;1.37;;;0.83;;
8466;SDS011;4270;48.148;11.648;2022-10-22T03:56:08;1.20;;;1.10;;
8466;SDS011;4270;48.148;11.648;2022-10-22T03:58:34;1.20;;;1.10;;
8466;SDS011;4270;48.148;11.648;2022-10-22T04:01:05;2.73;;;1.40;;
8466;SDS011;4270;48.148;11.648;2022-10-22T04:03:31;2.70;;;1.30;;
8466;SDS011;4270;48.148;11.648;2022-10-22T04:06:03;1.00;;;0.90;;
8466;SDS011;4270;48.148;11.648;2022-10-22T04:08:29;1.43;;;1.07;;
8466;SDS011;4270;48.148;11.648;2022-10-22T04:10:54;3.77;;;1.17;;
8466;SDS011;4270;48.148;11.648;2022-10-22T04:13:19;1.47;;;1.00;;
8466;SDS011;4270;48.148;11.648;2022-10-22T04:15:44;2.00;;;1.00;;
8466;SDS011;4270;48.148;11.648;2022-10-22T04:18:09;2.73;;;0.93;;
8466;SDS011;4270;48.148;11.648;2022-10-22T04:20:34;3.63;;;0.97;;
8466;SDS011;4270;48.148;11.648;2022-10-22T04:23:00;1.43;;;0.90;;
8466;SDS011;4270;48.148;11.648;2022-10-22T04:25:25;1.50;;;0.93;;
8466;SDS011;4270;48.148;11.648;2022-10-22T04:27:50;1.60;;;0.90;;
8466;SDS011;4270;48.148;11.648;2022-10-22T04:30:15;0.83;;;0.70;;
8466;SDS011;4270;48.148;11.648;2022-10-22T04:32:40;2.53;;;0.90;;
8466;SDS011;4270;48.148;11.648;2022-10-22T04:35:06;1.27;;;0.90;;
8466;SDS011;4270;48.148;11.648;2022-10-22T04:37:31;2.23;;;1.00;;
8466;SDS011;4270;48.148;11.648;2022-10-22T04:39:57;0.70;;;0.70;;
8466;SDS011;4270;48.148;11.648;2022-10-22T04:42:22;4.27;;;1.30;;
8466;SDS011;4270;48.148;11.648;2022-10-22T04:44:47;0.90;;;0.70;;
8466;SDS011;4270;48.148;11.648;2022-10-22T04:47:12;2.47;;;0.90;;
8466;SDS011;4270;48.148;11.648;2022-10-22T04:49:37;1.50;;;0.90;;
8466;SDS011;4270;48.148;11.648;2022-10-22T04:52:02;2.20;;;0.87;;
8466;SDS011;4270;48.148;11.648;2022-10-22T04:54:28;4.10;;;0.93;;
8466;SDS011;4270;48.148;11.648;2022-10-22T04:56:53;3.17;;;0.87;;
8466;SDS011;4270;48.148;11.648;2022-10-22T04:59:18;2.30;;;0.90;;
8466;SDS011;4270;48.148;11.648;2022-10-22T05:01:43;2.00;;;0.70;;
8466;SDS011;4270;48.148;11.648;2022-10-22T05:04:13;0.70;;;0.70;;
8466;SDS011;4270;48.148;11.648;2022-10-22T05:06:39;1.03;;;0.60;;
8466;SDS011;4270;48.148;11.648;2022-10-22T05:09:06;1.80;;;0.67;;
8466;SDS011;4270;48.148;11.648;2022-10-22T05:11:33;1.23;;;1.10;;
8466;SDS011;4270;48.148;11.648;2022-10-22T05:13:59;2.30;;;0.77;;
8466;SDS011;4270;48.148;11.648;2022-10-22T05:16:26;0.50;;;0.40;;
8466;SDS011;4270;48.148;11.648;2022-10-22T05:18:51;0.53;;;0.53;;
8466;SDS011;4270;48.148;11.648;2022-10-22T05:21:17;1.70;;;0.50;;
8466;SDS011;4270;48.148;11.648;2022-10-22T05:23:44;1.03;;;0.53;;
8466;SDS011;4270;48.148;11.648;2022-10-22T05:26:10;1.17;;;0.50;;
8466;SDS011;4270;48.148;11.648;2022-10-22T05:28:35;0.70;;;0.70;;
8466;SDS011;4270;48.148;11.648;2022-10-22T05:31:01;1.87;;;0.60;;
8466;SDS011;4270;48.148;11.648;2022-10-22T05:33:27;3.03;;;0.70;;
8466;SDS011;4270;48.148;11.648;2022-10-22T05:35:52;1.47;;;0.50;;
8466;SDS011;4270;48.148;11.648;2022-10-22T05:38:18;1.40;;;0.50;;
8466;SDS011;4270;48.148;11.648;2022-10-22T05:40:43;3.77;;;0.63;;
8466;SDS011;4270;48.148;11.648;2022-10-22T05:43:08;1.20;;;0.40;;
8466;SDS011;4270;48.148;11.648;2022-10-22T05:45:37;1.70;;;0.50;;
8466;SDS011;4270;48.148;11.648;2022-10-22T05:48:02;0.80;;;0.50;;
8466;SDS011;4270;48.148;11.648;2022-10-22T05:50:28;1.00;;;0.50;;
8466;SDS011;4270;48.148;11.648;2022-10-22T05:52:53;1.37;;;0.40;;
8466;SDS011;4270;48.148;11.648;2022-10-22T05:55:18;1.70;;;0.40;;
8466;SDS011;4270;48.148;11.648;2022-10-22T05:57:43;0.47;;;0.47;;
8466;SDS011;4270;48.148;11.648;2022-10-22T06:00:09;1.47;;;0.53;;
8466;SDS011;4270;48.148;11.648;2022-10-22T06:02:34;2.30;;;0.40;;
8466;SDS011;4270;48.148;11.648;2022-10-22T06:04:59;1.00;;;0.50;;
8466;SDS011;4270;48.148;11.648;2022-10-22T06:07:24;0.40;;;0.40;;
8466;SDS011;4270;48.148;11.648;2022-10-22T06:09:49;0.70;;;0.40;;
8466;SDS011;4270;48.148;11.648;2022-10-22T06:12:15;0.50;;;0.50;;
8466;SDS011;4270;48.148;11.648;2022-10-22T06:14:40;1.60;;;0.40;;
8466;SDS011;4270;48.148;11.648;2022-10-22T06:17:05;2.00;;;0.40;;
8466;SDS011;4270;48.148;11.648;2022-10-22T06:19:30;1.03;;;0.47;;
8466;SDS011;4270;48.148;11.648;2022-10-22T06:21:56;0.50;;;0.50;;
8466;SDS011;4270;48.148;11.648;2022-10-22T06:24:21;0.70;;;0.40;;
8466;SDS011;4270;48.148;11.648;2022-10-22T06:26:49;0.60;;;0.40;;
8466;SDS011;4270;48.148;11.648;2022-10-22T06:29:15;1.17;;;0.40;;
8466;SDS011;4270;48.148;11.648;2022-10-22T06:31:40;1.50;;;0.30;;
8466;SDS011;4270;48.148;11.648;2022-10-22T06:34:06;1.63;;;0.47;;
8466;SDS011;4270;48.148;11.648;2022-10-22T06:36:32;0.40;;;0.30;;
8466;SDS011;4270;48.148;11.648;2022-10-22T06:38:58;0.50;;;0.40;;
8466;SDS011;4270;48.148;11.648;2022-10-22T06:41:23;1.13;;;0.50;;
8466;SDS011;4270;48.148;11.648;2022-10-22T06:43:48;0.90;;;0.60;;
8466;SDS011;4270;48.148;11.648;2022-10-22T06:46:16;0.80;;;0.60;;
8466;SDS011;4270;48.148;11.648;2022-10-22T06:48:41;0.83;;;0.50;;
8466;SDS011;4270;48.148;11.648;2022-10-22T06:51:08;1.53;;;0.60;;
8466;SDS011;4270;48.148;11.648;2022-10-22T06:53:33;0.53;;;0.53;;
8466;SDS011;4270;48.148;11.648;2022-10-22T06:56:08;0.70;;;0.50;;
8466;SDS011;4270;48.148;11.648;2022-10-22T06:58:33;1.33;;;0.50;;
8466;SDS011;4270;48.148;11.648;2022-10-22T07:01:03;1.37;;;0.90;;
8466;SDS011;4270;48.148;11.648;2022-10-22T07:03:28;3.10;;;0.80;;
8466;SDS011;4270;48.148;11.648;2022-10-22T07:05:53;0.67;;;0.43;;
8466;SDS011;4270;48.148;11.648;2022-10-22T07:08:18;1.80;;;0.53;;
8466;SDS011;4270;48.148;11.648;2022-10-22T07:10:44;1.17;;;0.60;;
8466;SDS011;4270;48.148;11.648;2022-10-22T07:13:09;0.70;;;0.57;;
8466;SDS011;4270;48.148;11.648;2022-10-22T07:15:34;1.10;;;0.53;;
8466;SDS011;4270;48.148;11.648;2022-10-22T07:17:59;2.10;;;0.60;;
8466;SDS011;4270;48.148;11.648;2022-10-22T07:20:25;1.30;;;0.47;;
8466;SDS011;4270;48.148;11.648;2022-10-22T07:22:50;2.10;;;0.60;;
8466;SDS011;4270;48.148;11.648;2022-10-22T07:25:15;0.50;;;0.50;;
8466;SDS011;4270;48.148;11.648;2022-10-22T07:27:41;2.70;;;0.77;;
8466;SDS011;4270;48.148;11.648;2022-10-22T07:30:06;0.90;;;0.57;;
8466;SDS011;4270;48.148;11.648;2022-10-22T07:32:32;0.67;;;0.50;;
8466;SDS011;4270;48.148;11.648;2022-10-22T07:34:57;1.33;;;0.50;;
8466;SDS011;4270;48.148;11.648;2022-10-22T07:37:22;0.70;;;0.60;;
8466;SDS011;4270;48.148;11.648;2022-10-22T07:39:47;0.50;;;0.50;;
8466;SDS011;4270;48.148;11.648;2022-10-22T07:42:13;2.40;;;0.50;;
8466;SDS011;4270;48.148;11.648;2022-10-22T07:44:38;0.70;;;0.57;;
8466;SDS011;4270;48.148;11.648;2022-10-22T07:47:03;0.93;;;0.70;;
8466;SDS011;4270;48.148;11.648;2022-10-22T07:49:29;2.67;;;0.80;;
8466;SDS011;4270;48.148;11.648;2022-10-22T07:51:54;0.70;;;0.60;;
8466;SDS011;4270;48.148;11.648;2022-10-22T07:54:20;1.53;;;0.60;;
8466;SDS011;4270;48.148;11.648;2022-10-22T07:56:46;0.90;;;0.60;;
8466;SDS011;4270;48.148;11.648;2022-10-22T07:59:11;0.83;;;0.70;;
8466;SDS011;4270;48.148;11.648;2022-10-22T08:01:36;2.23;;;0.80;;
8466;SDS011;4270;48.148;11.648;2022-10-22T08:04:01;0.83;;;0.60;;
8466;SDS011;4270;48.148;11.648;2022-10-22T08:06:27;1.43;;;0.50;;
8466;SDS011;4270;48.148;11.648;2022-10-22T08:08:52;0.97;;;0.53;;
8466;SDS011;4270;48.148;11.648;2022-10-22T08:11:17;2.20;;;0.60;;
8466;SDS011;4270;48.148;11.648;2022-10-22T08:13:42;0.60;;;0.60;;
8466;SDS011;4270;48.148;11.648;2022-10-22T08:16:08;0.77;;;0.70;;
8466;SDS011;4270;48.148;11.648;2022-10-22T08:18:33;7.63;;;1.00;;
8466;SDS011;4270;48.148;11.648;2022-10-22T08:20:58;0.70;;;0.50;;
8466;SDS011;4270;48.148;11.648;2022-10-22T08:23:23;0.87;;;0.60;;
8466;SDS011;4270;48.148;11.648;2022-10-22T08:25:49;2.03;;;0.70;;
8466;SDS011;4270;48.148;11.648;2022-10-22T08:28:14;1.30;;;0.67;;
8466;SDS011;4270;48.148;11.648;2022-10-22T08:30:39;0.60;;;0.60;;
8466;SDS011;4270;48.148;11.648;2022-10-22T08:33:06;0.60;;;0.53;;
8466;SDS011;4270;48.148;11.648;2022-10-22T08:35:32;1.67;;;0.93;;
8466;SDS011;4270;48.148;11.648;2022-10-22T08:37:57;1.17;;;0.90;;
8466;SDS011;4270;48.148;11.648;2022-10-22T08:40:29;2.30;;;1.03;;
8466;SDS011;4270;48.148;11.648;2022-10-22T08:43:03;0.90;;;0.90;;
8466;SDS011;4270;48.148;11.648;2022-10-22T08:45:34;1.00;;;0.90;;
8466;SDS011;4270;48.148;11.648;2022-10-22T08:48:15;1.37;;;1.10;;
8466;SDS011;4270;48.148;11.648;2022-10-22T08:50:45;3.80;;;1.33;;
8466;SDS011;4270;48.148;11.648;2022-10-22T08:53:14;2.00;;;1.00;;
8466;SDS011;4270;48.148;11.648;2022-10-22T08:55:39;1.20;;;1.10;;
8466;SDS011;4270;48.148;11.648;2022-10-22T09:01:04;0.80;;;0.80;;
8466;SDS011;4270;48.148;11.648;2022-10-22T09:08:20;0.60;;;0.60;;
8466;SDS011;4270;48.148;11.648;2022-10-22T09:10:47;1.17;;;0.67;;
8466;SDS011;4270;48.148;11.648;2022-10-22T09:13:15;1.37;;;0.70;;
8466;SDS011;4270;48.148;11.648;2022-10-22T09:15:41;0.73;;;0.70;;
8466;SDS011;4270;48.148;11.648;2022-10-22T09:20:55;1.30;;;0.80;;
8466;SDS011;4270;48.148;11.648;2022-10-22T09:23:31;0.70;;;0.70;;
8466;SDS011;4270;48.148;11.648;2022-10-22T09:25:57;1.00;;;0.70;;
8466;SDS011;4270;48.148;11.648;2022-10-22T09:28:23;1.57;;;0.70;;
8466;SDS011;4270;48.148;11.648;2022-10-22T09:30:48;2.60;;;0.90;;
8466;SDS011;4270;48.148;11.648;2022-10-22T09:33:15;2.83;;;0.87;;
8466;SDS011;4270;48.148;11.648;2022-10-22T09:38:13;1.00;;;0.90;;
8466;SDS011;4270;48.148;11.648;2022-10-22T09:40:46;0.80;;;0.80;;
8466;SDS011;4270;48.148;11.648;2022-10-22T09:43:12;1.60;;;0.70;;
8466;SDS011;4270;48.148;11.648;2022-10-22T09:45:38;1.93;;;0.70;;
8466;SDS011;4270;48.148;11.648;2022-10-22T09:48:10;3.23;;;0.80;;
8466;SDS011;4270;48.148;11.648;2022-10-22T09:55:30;1.73;;;1.00;;
8466;SDS011;4270;48.148;11.648;2022-10-22T09:57:57;2.97;;;0.93;;
8466;SDS011;4270;48.148;11.648;2022-10-22T10:00:22;0.97;;;0.70;;
8466;SDS011;4270;48.148;11.648;2022-10-22T10:02:52;0.97;;;0.70;;
8466;SDS011;4270;48.148;11.648;2022-10-22T10:05:18;1.50;;;0.77;;
8466;SDS011;4270;48.148;11.648;2022-10-22T10:07:44;0.87;;;0.83;;
8466;SDS011;4270;48.148;11.648;2022-10-22T10:10:26;1.70;;;0.90;;
8466;SDS011;4270;48.148;11.648;2022-10-22T10:12:56;4.27;;;0.90;;
8466;SDS011;4270;48.148;11.648;2022-10-22T10:15:32;0.93;;;0.73;;
8466;SDS011;4270;48.148;11.648;2022-10-22T10:23:44;1.33;;;0.73;;
8466;SDS011;4270;48.148;11.648;2022-10-22T10:34:39;1.27;;;1.00;;
8466;SDS011;4270;48.148;11.648;2022-10-22T10:39:40;4.03;;;1.30;;
8466;SDS011;4270;48.148;11.648;2022-10-22T10:47:26;2.00;;;1.00;;
8466;SDS011;4270;48.148;11.648;2022-10-22T10:49:56;1.20;;;1.03;;
8466;SDS011;4270;48.148;11.648;2022-10-22T10:52:35;2.30;;;1.20;;
8466;SDS011;4270;48.148;11.648;2022-10-22T10:58:09;3.63;;;1.30;;
8466;SDS011;4270;48.148;11.648;2022-10-22T11:00:27;1.17;;;0.80;;
8466;SDS011;4270;48.148;11.648;2022-10-22T11:05:41;2.10;;;1.20;;
8466;SDS011;4270;48.148;11.648;2022-10-22T11:10:45;1.00;;;0.90;;
8466;SDS011;4270;48.148;11.648;2022-10-22T11:15:48;1.30;;;0.90;;
8466;SDS011;4270;48.148;11.648;2022-10-22T11:20:52;1.43;;;0.60;;
8466;SDS011;4270;48.148;11.648;2022-10-22T11:23:24;1.30;;;1.20;;
8466;SDS011;4270;48.148;11.648;2022-10-22T11:25:52;2.00;;;0.90;;
8466;SDS011;4270;48.148;11.648;2022-10-22T11:28:24;1.67;;;1.00;;
8466;SDS011;4270;48.148;11.648;2022-10-22T11:31:01;0.97;;;0.90;;
8466;SDS011;4270;48.148;11.648;2022-10-22T11:33:32;1.00;;;0.90;;
8466;SDS011;4270;48.148;11.648;2022-10-22T11:36:01;1.13;;;0.70;;
8466;SDS011;4270;48.148;11.648;2022-10-22T11:38:27;1.40;;;1.00;;
8466;SDS011;4270;48.148;11.648;2022-10-22T11:40:55;4.77;;;1.27;;
8466;SDS011;4270;48.148;11.648;2022-10-22T11:43:25;1.00;;;0.87;;
8466;SDS011;4270;48.148;11.648;2022-10-22T11:45:56;0.77;;;0.77;;
8466;SDS011;4270;48.148;11.648;2022-10-22T11:48:21;1.27;;;1.00;;
8466;SDS011;4270;48.148;11.648;2022-10-22T11:55:44;1.60;;;0.77;;
8466;SDS011;4270;48.148;11.648;2022-10-22T12:08:27;1.63;;;0.80;;
8466;SDS011;4270;48.148;11.648;2022-10-22T12:13:29;0.83;;;0.53;;
8466;SDS011;4270;48.148;11.648;2022-10-22T12:15:56;0.80;;;0.60;;
8466;SDS011;4270;48.148;11.648;2022-10-22T12:18:30;0.70;;;0.60;;
8466;SDS011;4270;48.148;11.648;2022-10-22T12:20:56;1.40;;;0.60;;
8466;SDS011;4270;48.148;11.648;2022-10-22T12:23:27;3.47;;;0.83;;
8466;SDS011;4270;48.148;11.648;2022-10-22T12:25:53;1.20;;;0.70;;
8466;SDS011;4270;48.148;11.648;2022-10-22T12:28:19;2.90;;;0.70;;
8466;SDS011;4270;48.148;11.648;2022-10-22T12:30:44;0.80;;;0.60;;
8466;SDS011;4270;48.148;11.648;2022-10-22T12:33:22;1.67;;;0.70;;
8466;SDS011;4270;48.148;11.648;2022-10-22T12:35:48;1.90;;;0.60;;
8466;SDS011;4270;48.148;11.648;2022-10-22T12:38:17;1.47;;;0.60;;
8466;SDS011;4270;48.148;11.648;2022-10-22T12:40:44;1.07;;;0.80;;
8466;SDS011;4270;48.148;11.648;2022-10-22T12:43:10;0.83;;;0.60;;
8466;SDS011;4270;48.148;11.648;2022-10-22T12:45:35;1.77;;;0.57;;
8466;SDS011;4270;48.148;11.648;2022-10-22T12:48:02;0.60;;;0.60;;
8466;SDS011;4270;48.148;11.648;2022-10-22T12:50:30;0.77;;;0.60;;
8466;SDS011;4270;48.148;11.648;2022-10-22T12:52:57;1.93;;;0.60;;
8466;SDS011;4270;48.148;11.648;2022-10-22T12:55:22;0.80;;;0.40;;
8466;SDS011;4270;48.148;11.648;2022-10-22T12:57:49;0.90;;;0.60;;
8466;SDS011;4270;48.148;11.648;2022-10-22T13:00:19;0.70;;;0.60;;
8466;SDS011;4270;48.148;11.648;2022-10-22T13:02:45;0.60;;;0.50;;
8466;SDS011;4270;48.148;11.648;2022-10-22T13:05:24;3.53;;;0.77;;
8466;SDS011;4270;48.148;11.648;2022-10-22T13:08:00;0.50;;;0.40;;
8466;SDS011;4270;48.148;11.648;2022-10-22T13:10:34;0.60;;;0.53;;
8466;SDS011;4270;48.148;11.648;2022-10-22T13:12:59;3.10;;;0.53;;
8466;SDS011;4270;48.148;11.648;2022-10-22T13:18:02;1.63;;;0.60;;
8466;SDS011;4270;48.148;11.648;2022-10-22T13:20:28;1.00;;;0.80;;
8466;SDS011;4270;48.148;11.648;2022-10-22T13:22:58;0.90;;;0.70;;
8466;SDS011;4270;48.148;11.648;2022-10-22T13:25:36;2.33;;;1.00;;
8466;SDS011;4270;48.148;11.648;2022-10-22T13:30:49;1.10;;;0.73;;
8466;SDS011;4270;48.148;11.648;2022-10-22T13:35:52;1.23;;;0.87;;
8466;SDS011;4270;48.148;11.648;2022-10-22T13:38:19;0.80;;;0.80;;
8466;SDS011;4270;48.148;11.648;2022-10-22T13:40:45;2.33;;;1.00;;
8466;SDS011;4270;48.148;11.648;2022-10-22T13:43:10;1.73;;;0.50;;
8466;SDS011;4270;48.148;11.648;2022-10-22T13:45:35;3.23;;;0.60;;
8466;SDS011;4270;48.148;11.648;2022-10-22T13:48:00;2.77;;;0.80;;
8466;SDS011;4270;48.148;11.648;2022-10-22T13:50:26;1.93;;;0.53;;
8466;SDS011;4270;48.148;11.648;2022-10-22T13:52:52;1.27;;;0.80;;
8466;SDS011;4270;48.148;11.648;2022-10-22T13:55:22;1.33;;;0.83;;
8466;SDS011;4270;48.148;11.648;2022-10-22T13:57:49;2.10;;;1.00;;
8466;SDS011;4270;48.148;11.648;2022-10-22T14:00:16;3.07;;;1.13;;
8466;SDS011;4270;48.148;11.648;2022-10-22T14:02:42;2.50;;;0.90;;
8466;SDS011;4270;48.148;11.648;2022-10-22T14:05:08;2.23;;;1.23;;
8466;SDS011;4270;48.148;11.648;2022-10-22T14:07:35;1.70;;;1.03;;
8466;SDS011;4270;48.148;11.648;2022-10-22T14:10:00;0.60;;;0.60;;
8466;SDS011;4270;48.148;11.648;2022-10-22T14:12:26;1.23;;;1.10;;
8466;SDS011;4270;48.148;11.648;2022-10-22T14:14:52;1.03;;;0.77;;
8466;SDS011;4270;48.148;11.648;2022-10-22T14:17:17;2.13;;;0.80;;
8466;SDS011;4270;48.148;11.648;2022-10-22T14:19:43;1.27;;;0.80;;
8466;SDS011;4270;48.148;11.648;2022-10-22T14:22:15;1.03;;;0.80;;
8466;SDS011;4270;48.148;11.648;2022-10-22T14:24:41;1.07;;;0.80;;
8466;SDS011;4270;48.148;11.648;2022-10-22T14:27:08;3.00;;;0.90;;
8466;SDS011;4270;48.148;11.648;2022-10-22T14:29:34;4.43;;;0.87;;
8466;SDS011;4270;48.148;11.648;2022-10-22T14:31:59;0.80;;;0.80;;
8466;SDS011;4270;48.148;11.648;2022-10-22T14:34:24;2.00;;;0.80;;
8466;SDS011;4270;48.148;11.648;2022-10-22T14:36:49;3.63;;;2.20;;
8466;SDS011;4270;48.148;11.648;2022-10-22T14:39:14;4.40;;;1.00;;
8466;SDS011;4270;48.148;11.648;2022-10-22T14:41:41;4.10;;;0.80;;
8466;SDS011;4270;48.148;11.648;2022-10-22T14:44:08;1.13;;;0.73;;
8466;SDS011;4270;48.148;11.648;2022-10-22T14:46:36;3.13;;;0.77;;
8466;SDS011;4270;48.148;11.648;2022-10-22T14:49:03;0.90;;;0.90;;
8466;SDS011;4270;48.148;11.648;2022-10-22T14:51:29;1.87;;;0.70;;
8466;SDS011;4270;48.148;11.648;2022-10-22T14:53:54;2.50;;;1.10;;
8466;SDS011;4270;48.148;11.648;2022-10-22T14:56:19;2.73;;;0.87;;
8466;SDS011;4270;48.148;11.648;2022-10-22T14:58:47;1.10;;;1.00;;
8466;SDS011;4270;48.148;11.648;2022-10-22T15:01:12;2.80;;;1.00;;
8466;SDS011;4270;48.148;11.648;2022-10-22T15:03:38;4.23;;;1.20;;
8466;SDS011;4270;48.148;11.648;2022-10-22T15:06:03;2.00;;;0.83;;
8466;SDS011;4270;48.148;11.648;2022-10-22T15:08:29;1.83;;;1.10;;
8466;SDS011;4270;48.148;11.648;2022-10-22T15:11:07;5.73;;;0.90;;
8466;SDS011;4270;48.148;11.648;2022-10-22T15:13:33;1.40;;;0.93;;
8466;SDS011;4270;48.148;11.648;2022-10-22T15:15:58;1.80;;;0.90;;
8466;SDS011;4270;48.148;11.648;2022-10-22T15:18:24;1.37;;;1.07;;
8466;SDS011;4270;48.148;11.648;2022-10-22T15:20:56;2.57;;;0.93;;
8466;SDS011;4270;48.148;11.648;2022-10-22T15:23:22;4.87;;;1.00;;
8466;SDS011;4270;48.148;11.648;2022-10-22T15:25:47;2.23;;;0.90;;
8466;SDS011;4270;48.148;11.648;2022-10-22T15:28:12;3.63;;;1.00;;
8466;SDS011;4270;48.148;11.648;2022-10-22T15:30:37;2.70;;;0.90;;
8466;SDS011;4270;48.148;11.648;2022-10-22T15:33:02;3.70;;;1.20;;
8466;SDS011;4270;48.148;11.648;2022-10-22T15:35:28;2.33;;;0.87;;
8466;SDS011;4270;48.148;11.648;2022-10-22T15:37:53;1.87;;;1.17;;
8466;SDS011;4270;48.148;11.648;2022-10-22T15:43:08;2.30;;;1.00;;
8466;SDS011;4270;48.148;11.648;2022-10-22T15:45:34;3.03;;;1.30;;
8466;SDS011;4270;48.148;11.648;2022-10-22T15:47:59;4.47;;;1.30;;
8466;SDS011;4270;48.148;11.648;2022-10-22T15:50:24;2.50;;;1.10;;
8466;SDS011;4270;48.148;11.648;2022-10-22T15:52:50;3.10;;;1.50;;
8466;SDS011;4270;48.148;11.648;2022-10-22T15:55:15;3.23;;;1.70;;
8466;SDS011;4270;48.148;11.648;2022-10-22T15:57:40;4.40;;;1.67;;
8466;SDS011;4270;48.148;11.648;2022-10-22T16:00:06;4.73;;;1.30;;
8466;SDS011;4270;48.148;11.648;2022-10-22T16:02:31;2.27;;;1.10;;
8466;SDS011;4270;48.148;11.648;2022-10-22T16:04:56;4.87;;;1.53;;
8466;SDS011;4270;48.148;11.648;2022-10-22T16:07:22;3.83;;;1.40;;
8466;SDS011;4270;48.148;11.648;2022-10-22T16:09:48;2.60;;;1.10;;
8466;SDS011;4270;48.148;11.648;2022-10-22T16:12:13;1.23;;;1.00;;
8466;SDS011;4270;48.148;11.648;2022-10-22T16:14:38;5.53;;;1.10;;
8466;SDS011;4270;48.148;11.648;2022-10-22T16:17:03;1.87;;;1.17;;
8466;SDS011;4270;48.148;11.648;2022-10-22T16:19:28;2.40;;;1.37;;
8466;SDS011;4270;48.148;11.648;2022-10-22T16:21:54;3.43;;;2.33;;
8466;SDS011;4270;48.148;11.648;2022-10-22T16:24:20;4.50;;;2.53;;
8466;SDS011;4270;48.148;11.648;2022-10-22T16:26:45;5.67;;;3.53;;
8466;SDS011;4270;48.148;11.648;2022-10-22T16:29:10;8.13;;;5.53;;
8466;SDS011;4270;48.148;11.648;2022-10-22T16:31:36;9.33;;;6.00;;
8466;SDS011;4270;48.148;11.648;2022-10-22T16:34:02;12.33;;;8.00;;
8466;SDS011;4270;48.148;11.648;2022-10-22T16:36:27;13.03;;;8.80;;
8466;SDS011;4270;48.148;11.648;2022-10-22T16:38:52;11.73;;;8.90;;
8466;SDS011;4270;48.148;11.648;2022-10-22T16:41:18;7.87;;;6.43;;
8466;SDS011;4270;48.148;11.648;2022-10-22T16:43:44;8.40;;;7.60;;
8466;SDS011;4270;48.148;11.648;2022-10-22T16:46:12;9.70;;;8.70;;
8466;SDS011;4270;48.148;11.648;2022-10-22T16:48:37;7.43;;;6.83;;
8466;SDS011;4270;48.148;11.648;2022-10-22T16:51:08;6.93;;;6.33;;